sensor_id;sensor_type;location;lat;lon;timestamp;P1;durP1;ratioP1;P2;durP2;ratioP2
47860;SDS011;33620;52.340;5.984;2023-09-07T00:00:42;7.78;;;5.22;;
47860;SDS011;33620;52.340;5.984;2023-09-07T00:03:07;10.80;;;5.15;;
47860;SDS011;33620;52.340;5.984;2023-09-07T00:05:33;12.25;;;5.95;;
47860;SDS011;33620;52.340;5.984;2023-09-07T00:07:58;8.00;;;5.28;;
47860;SDS011;33620;52.340;5.984;2023-09-07T00:10:24;8.80;;;5.13;;
47860;SDS011;33620;52.340;5.984;2023-09-07T00:12:50;11.68;;;6.07;;
47860;SDS011;33620;52.340;5.984;2023-09-07T00:15:16;11.98;;;6.38;;
47860;SDS011;33620;52.340;5.984;2023-09-07T00:17:44;11.93;;;6.57;;
47860;SDS011;33620;52.340;5.984;2023-09-07T00:20:09;11.48;;;6.15;;
47860;SDS011;33620;52.340;5.984;2023-09-07T00:22:36;12.00;;;6.75;;
47860;SDS011;33620;52.340;5.984;2023-09-07T00:25:02;11.05;;;6.50;;
47860;SDS011;33620;52.340;5.984;2023-09-07T00:27:29;11.15;;;6.75;;
47860;SDS011;33620;52.340;5.984;2023-09-07T00:29:54;10.38;;;6.93;;
47860;SDS011;33620;52.340;5.984;2023-09-07T00:32:20;12.07;;;7.10;;
47860;SDS011;33620;52.340;5.984;2023-09-07T00:34:45;11.02;;;6.95;;
47860;SDS011;33620;52.340;5.984;2023-09-07T00:37:11;12.65;;;6.25;;
47860;SDS011;33620;52.340;5.984;2023-09-07T00:39:37;12.43;;;7.13;;
47860;SDS011;33620;52.340;5.984;2023-09-07T00:42:02;11.98;;;7.03;;
47860;SDS011;33620;52.340;5.984;2023-09-07T00:44:28;13.25;;;7.22;;
47860;SDS011;33620;52.340;5.984;2023-09-07T00:46:53;13.35;;;7.57;;
47860;SDS011;33620;52.340;5.984;2023-09-07T00:49:19;11.00;;;6.20;;
47860;SDS011;33620;52.340;5.984;2023-09-07T00:51:44;16.60;;;7.38;;
47860;SDS011;33620;52.340;5.984;2023-09-07T00:54:10;13.02;;;7.05;;
47860;SDS011;33620;52.340;5.984;2023-09-07T00:56:36;10.95;;;7.28;;
47860;SDS011;33620;52.340;5.984;2023-09-07T00:59:01;13.40;;;7.03;;
47860;SDS011;33620;52.340;5.984;2023-09-07T01:01:27;12.18;;;7.10;;
47860;SDS011;33620;52.340;5.984;2023-09-07T01:03:54;13.32;;;6.80;;
47860;SDS011;33620;52.340;5.984;2023-09-07T01:09:28;11.65;;;7.05;;
47860;SDS011;33620;52.340;5.984;2023-09-07T01:11:56;11.50;;;6.50;;
47860;SDS011;33620;52.340;5.984;2023-09-07T01:14:22;10.25;;;6.57;;
47860;SDS011;33620;52.340;5.984;2023-09-07T01:16:47;10.00;;;5.90;;
47860;SDS011;33620;52.340;5.984;2023-09-07T01:19:14;11.25;;;6.68;;
47860;SDS011;33620;52.340;5.984;2023-09-07T01:21:39;12.48;;;6.32;;
47860;SDS011;33620;52.340;5.984;2023-09-07T01:24:09;9.38;;;6.25;;
47860;SDS011;33620;52.340;5.984;2023-09-07T01:26:35;12.05;;;7.20;;
47860;SDS011;33620;52.340;5.984;2023-09-07T01:29:04;11.95;;;7.05;;
47860;SDS011;33620;52.340;5.984;2023-09-07T01:31:34;14.07;;;7.40;;
47860;SDS011;33620;52.340;5.984;2023-09-07T01:34:01;12.85;;;7.35;;
47860;SDS011;33620;52.340;5.984;2023-09-07T01:36:26;9.50;;;6.25;;
47860;SDS011;33620;52.340;5.984;2023-09-07T01:38:51;11.48;;;6.15;;
47860;SDS011;33620;52.340;5.984;2023-09-07T01:41:17;11.30;;;6.30;;
47860;SDS011;33620;52.340;5.984;2023-09-07T01:43:42;12.77;;;6.55;;
47860;SDS011;33620;52.340;5.984;2023-09-07T01:46:07;12.02;;;7.30;;
47860;SDS011;33620;52.340;5.984;2023-09-07T01:48:34;10.77;;;6.45;;
47860;SDS011;33620;52.340;5.984;2023-09-07T01:51:00;10.48;;;6.63;;
47860;SDS011;33620;52.340;5.984;2023-09-07T01:53:25;12.48;;;6.40;;
47860;SDS011;33620;52.340;5.984;2023-09-07T01:55:53;9.52;;;5.15;;
47860;SDS011;33620;52.340;5.984;2023-09-07T01:58:20;9.00;;;5.50;;
47860;SDS011;33620;52.340;5.984;2023-09-07T02:00:45;11.00;;;5.55;;
47860;SDS011;33620;52.340;5.984;2023-09-07T02:03:11;9.95;;;4.68;;
47860;SDS011;33620;52.340;5.984;2023-09-07T02:05:36;7.63;;;4.45;;
47860;SDS011;33620;52.340;5.984;2023-09-07T02:08:02;6.95;;;4.30;;
47860;SDS011;33620;52.340;5.984;2023-09-07T02:10:29;7.80;;;4.40;;
47860;SDS011;33620;52.340;5.984;2023-09-07T02:12:55;6.68;;;3.90;;
47860;SDS011;33620;52.340;5.984;2023-09-07T02:15:22;7.50;;;4.00;;
47860;SDS011;33620;52.340;5.984;2023-09-07T02:17:48;8.20;;;4.25;;
47860;SDS011;33620;52.340;5.984;2023-09-07T02:20:14;9.38;;;4.43;;
47860;SDS011;33620;52.340;5.984;2023-09-07T02:22:39;6.07;;;4.00;;
47860;SDS011;33620;52.340;5.984;2023-09-07T02:25:05;7.10;;;4.05;;
47860;SDS011;33620;52.340;5.984;2023-09-07T02:27:32;8.27;;;4.20;;
47860;SDS011;33620;52.340;5.984;2023-09-07T02:29:58;6.65;;;3.65;;
47860;SDS011;33620;52.340;5.984;2023-09-07T02:32:23;7.03;;;4.18;;
47860;SDS011;33620;52.340;5.984;2023-09-07T02:34:48;7.22;;;4.78;;
47860;SDS011;33620;52.340;5.984;2023-09-07T02:37:14;8.93;;;5.13;;
47860;SDS011;33620;52.340;5.984;2023-09-07T02:39:41;9.85;;;5.45;;
47860;SDS011;33620;52.340;5.984;2023-09-07T02:42:06;8.48;;;5.00;;
47860;SDS011;33620;52.340;5.984;2023-09-07T02:44:32;9.98;;;5.10;;
47860;SDS011;33620;52.340;5.984;2023-09-07T02:46:57;9.35;;;5.32;;
47860;SDS011;33620;52.340;5.984;2023-09-07T02:49:22;9.07;;;5.55;;
47860;SDS011;33620;52.340;5.984;2023-09-07T02:51:48;12.02;;;5.80;;
47860;SDS011;33620;52.340;5.984;2023-09-07T02:54:13;11.82;;;5.50;;
47860;SDS011;33620;52.340;5.984;2023-09-07T02:56:38;12.02;;;5.82;;
47860;SDS011;33620;52.340;5.984;2023-09-07T02:59:04;11.00;;;6.55;;
47860;SDS011;33620;52.340;5.984;2023-09-07T03:01:29;11.13;;;6.70;;
47860;SDS011;33620;52.340;5.984;2023-09-07T03:03:56;9.93;;;6.32;;
47860;SDS011;33620;52.340;5.984;2023-09-07T03:06:21;9.85;;;5.97;;
47860;SDS011;33620;52.340;5.984;2023-09-07T03:08:46;13.85;;;7.13;;
47860;SDS011;33620;52.340;5.984;2023-09-07T03:11:12;10.35;;;6.63;;
47860;SDS011;33620;52.340;5.984;2023-09-07T03:13:37;9.95;;;6.00;;
47860;SDS011;33620;52.340;5.984;2023-09-07T03:16:03;8.93;;;5.15;;
47860;SDS011;33620;52.340;5.984;2023-09-07T03:18:29;7.03;;;4.70;;
47860;SDS011;33620;52.340;5.984;2023-09-07T03:20:55;5.68;;;4.47;;
47860;SDS011;33620;52.340;5.984;2023-09-07T03:23:24;7.70;;;4.32;;
47860;SDS011;33620;52.340;5.984;2023-09-07T03:25:49;9.52;;;5.05;;
47860;SDS011;33620;52.340;5.984;2023-09-07T03:28:15;7.88;;;4.78;;
47860;SDS011;33620;52.340;5.984;2023-09-07T03:30:40;10.05;;;4.22;;
47860;SDS011;33620;52.340;5.984;2023-09-07T03:33:06;6.63;;;4.05;;
47860;SDS011;33620;52.340;5.984;2023-09-07T03:35:31;4.97;;;3.88;;
47860;SDS011;33620;52.340;5.984;2023-09-07T03:37:57;8.35;;;4.32;;
47860;SDS011;33620;52.340;5.984;2023-09-07T03:40:23;10.65;;;4.57;;
47860;SDS011;33620;52.340;5.984;2023-09-07T03:42:49;7.20;;;3.95;;
47860;SDS011;33620;52.340;5.984;2023-09-07T03:45:14;8.43;;;4.28;;
47860;SDS011;33620;52.340;5.984;2023-09-07T03:47:41;7.20;;;4.10;;
47860;SDS011;33620;52.340;5.984;2023-09-07T03:50:07;8.73;;;4.43;;
47860;SDS011;33620;52.340;5.984;2023-09-07T03:52:33;8.23;;;4.60;;
47860;SDS011;33620;52.340;5.984;2023-09-07T03:54:59;8.77;;;4.30;;
47860;SDS011;33620;52.340;5.984;2023-09-07T03:57:25;5.50;;;4.13;;
47860;SDS011;33620;52.340;5.984;2023-09-07T03:59:52;6.55;;;4.25;;
47860;SDS011;33620;52.340;5.984;2023-09-07T04:02:18;7.10;;;4.20;;
47860;SDS011;33620;52.340;5.984;2023-09-07T04:04:43;8.52;;;4.28;;
47860;SDS011;33620;52.340;5.984;2023-09-07T04:07:14;6.63;;;4.30;;
47860;SDS011;33620;52.340;5.984;2023-09-07T04:09:39;8.27;;;4.30;;
47860;SDS011;33620;52.340;5.984;2023-09-07T04:12:05;6.32;;;3.95;;
47860;SDS011;33620;52.340;5.984;2023-09-07T04:14:31;7.15;;;4.13;;
47860;SDS011;33620;52.340;5.984;2023-09-07T04:16:57;6.40;;;4.13;;
47860;SDS011;33620;52.340;5.984;2023-09-07T04:19:22;6.50;;;4.28;;
47860;SDS011;33620;52.340;5.984;2023-09-07T04:21:48;9.52;;;4.25;;
47860;SDS011;33620;52.340;5.984;2023-09-07T04:24:13;5.97;;;4.53;;
47860;SDS011;33620;52.340;5.984;2023-09-07T04:26:38;7.90;;;4.53;;
47860;SDS011;33620;52.340;5.984;2023-09-07T04:29:04;7.55;;;4.70;;
47860;SDS011;33620;52.340;5.984;2023-09-07T04:31:31;7.10;;;4.28;;
47860;SDS011;33620;52.340;5.984;2023-09-07T04:33:57;8.10;;;4.68;;
47860;SDS011;33620;52.340;5.984;2023-09-07T04:36:22;9.00;;;4.93;;
47860;SDS011;33620;52.340;5.984;2023-09-07T04:38:48;8.10;;;4.70;;
47860;SDS011;33620;52.340;5.984;2023-09-07T04:41:13;8.18;;;4.82;;
47860;SDS011;33620;52.340;5.984;2023-09-07T04:43:41;8.40;;;4.97;;
47860;SDS011;33620;52.340;5.984;2023-09-07T04:46:10;8.45;;;4.90;;
47860;SDS011;33620;52.340;5.984;2023-09-07T04:48:36;9.32;;;4.97;;
47860;SDS011;33620;52.340;5.984;2023-09-07T04:51:03;9.15;;;4.90;;
47860;SDS011;33620;52.340;5.984;2023-09-07T04:53:30;9.65;;;5.18;;
47860;SDS011;33620;52.340;5.984;2023-09-07T04:55:57;8.40;;;4.95;;
47860;SDS011;33620;52.340;5.984;2023-09-07T04:58:23;9.07;;;5.47;;
47860;SDS011;33620;52.340;5.984;2023-09-07T05:00:49;11.25;;;6.00;;
47860;SDS011;33620;52.340;5.984;2023-09-07T05:03:14;11.15;;;5.72;;
47860;SDS011;33620;52.340;5.984;2023-09-07T05:05:41;10.55;;;5.43;;
47860;SDS011;33620;52.340;5.984;2023-09-07T05:08:07;10.73;;;5.60;;
47860;SDS011;33620;52.340;5.984;2023-09-07T05:10:32;10.52;;;5.90;;
47860;SDS011;33620;52.340;5.984;2023-09-07T05:12:58;9.57;;;5.43;;
47860;SDS011;33620;52.340;5.984;2023-09-07T05:15:24;8.50;;;5.00;;
47860;SDS011;33620;52.340;5.984;2023-09-07T05:17:51;9.10;;;5.07;;
47860;SDS011;33620;52.340;5.984;2023-09-07T05:20:16;10.55;;;4.90;;
47860;SDS011;33620;52.340;5.984;2023-09-07T05:22:42;8.05;;;4.78;;
47860;SDS011;33620;52.340;5.984;2023-09-07T05:25:07;9.18;;;4.90;;
47860;SDS011;33620;52.340;5.984;2023-09-07T05:27:36;11.30;;;5.50;;
47860;SDS011;33620;52.340;5.984;2023-09-07T05:30:03;11.75;;;5.10;;
47860;SDS011;33620;52.340;5.984;2023-09-07T05:32:29;8.55;;;5.28;;
47860;SDS011;33620;52.340;5.984;2023-09-07T05:34:54;7.82;;;4.88;;
47860;SDS011;33620;52.340;5.984;2023-09-07T05:37:20;8.23;;;4.65;;
47860;SDS011;33620;52.340;5.984;2023-09-07T05:39:45;9.23;;;5.20;;
47860;SDS011;33620;52.340;5.984;2023-09-07T05:42:11;10.60;;;5.25;;
47860;SDS011;33620;52.340;5.984;2023-09-07T05:44:37;8.43;;;4.97;;
47860;SDS011;33620;52.340;5.984;2023-09-07T05:47:02;7.07;;;4.63;;
47860;SDS011;33620;52.340;5.984;2023-09-07T05:49:28;10.32;;;5.43;;
47860;SDS011;33620;52.340;5.984;2023-09-07T05:51:54;8.57;;;5.22;;
47860;SDS011;33620;52.340;5.984;2023-09-07T05:54:19;14.10;;;5.90;;
47860;SDS011;33620;52.340;5.984;2023-09-07T05:56:44;7.68;;;5.18;;
47860;SDS011;33620;52.340;5.984;2023-09-07T05:59:10;8.75;;;5.88;;
47860;SDS011;33620;52.340;5.984;2023-09-07T06:01:35;11.82;;;6.75;;
47860;SDS011;33620;52.340;5.984;2023-09-07T06:04:01;10.60;;;5.95;;
47860;SDS011;33620;52.340;5.984;2023-09-07T06:06:27;12.98;;;6.00;;
47860;SDS011;33620;52.340;5.984;2023-09-07T06:08:52;10.80;;;6.65;;
47860;SDS011;33620;52.340;5.984;2023-09-07T06:11:17;12.30;;;6.68;;
47860;SDS011;33620;52.340;5.984;2023-09-07T06:13:43;12.82;;;6.55;;
47860;SDS011;33620;52.340;5.984;2023-09-07T06:16:08;11.45;;;6.80;;
47860;SDS011;33620;52.340;5.984;2023-09-07T06:18:34;14.88;;;7.15;;
47860;SDS011;33620;52.340;5.984;2023-09-07T06:20:59;17.10;;;8.55;;
47860;SDS011;33620;52.340;5.984;2023-09-07T06:23:24;14.25;;;7.35;;
47860;SDS011;33620;52.340;5.984;2023-09-07T06:25:50;18.88;;;8.60;;
47860;SDS011;33620;52.340;5.984;2023-09-07T06:28:15;16.35;;;8.52;;
47860;SDS011;33620;52.340;5.984;2023-09-07T06:30:41;16.52;;;8.45;;
47860;SDS011;33620;52.340;5.984;2023-09-07T06:33:06;17.40;;;9.80;;
47860;SDS011;33620;52.340;5.984;2023-09-07T06:35:32;18.52;;;9.88;;
47860;SDS011;33620;52.340;5.984;2023-09-07T06:37:58;19.60;;;9.85;;
47860;SDS011;33620;52.340;5.984;2023-09-07T06:40:23;18.30;;;9.07;;
47860;SDS011;33620;52.340;5.984;2023-09-07T06:42:50;19.77;;;11.43;;
47860;SDS011;33620;52.340;5.984;2023-09-07T06:45:16;23.10;;;13.25;;
47860;SDS011;33620;52.340;5.984;2023-09-07T06:47:42;23.08;;;12.25;;
47860;SDS011;33620;52.340;5.984;2023-09-07T06:50:07;22.65;;;13.15;;
47860;SDS011;33620;52.340;5.984;2023-09-07T06:52:33;22.70;;;12.07;;
47860;SDS011;33620;52.340;5.984;2023-09-07T06:54:58;19.88;;;12.57;;
47860;SDS011;33620;52.340;5.984;2023-09-07T06:57:23;21.55;;;13.50;;
47860;SDS011;33620;52.340;5.984;2023-09-07T06:59:49;23.08;;;13.60;;
47860;SDS011;33620;52.340;5.984;2023-09-07T07:02:14;21.25;;;12.90;;
47860;SDS011;33620;52.340;5.984;2023-09-07T07:04:39;20.50;;;12.55;;
47860;SDS011;33620;52.340;5.984;2023-09-07T07:07:05;22.27;;;13.88;;
47860;SDS011;33620;52.340;5.984;2023-09-07T07:09:31;22.58;;;13.85;;
47860;SDS011;33620;52.340;5.984;2023-09-07T07:11:58;21.40;;;12.27;;
47860;SDS011;33620;52.340;5.984;2023-09-07T07:14:26;20.90;;;13.38;;
47860;SDS011;33620;52.340;5.984;2023-09-07T07:16:51;21.55;;;12.65;;
47860;SDS011;33620;52.340;5.984;2023-09-07T07:19:17;20.80;;;13.35;;
47860;SDS011;33620;52.340;5.984;2023-09-07T07:21:42;23.77;;;12.68;;
47860;SDS011;33620;52.340;5.984;2023-09-07T07:24:07;23.48;;;14.20;;
47860;SDS011;33620;52.340;5.984;2023-09-07T07:26:33;20.45;;;12.50;;
47860;SDS011;33620;52.340;5.984;2023-09-07T07:28:59;20.30;;;11.88;;
47860;SDS011;33620;52.340;5.984;2023-09-07T07:31:24;19.92;;;12.73;;
47860;SDS011;33620;52.340;5.984;2023-09-07T07:33:50;19.73;;;12.32;;
47860;SDS011;33620;52.340;5.984;2023-09-07T07:36:15;23.85;;;13.30;;
47860;SDS011;33620;52.340;5.984;2023-09-07T07:38:41;21.77;;;12.95;;
47860;SDS011;33620;52.340;5.984;2023-09-07T07:41:06;19.92;;;12.05;;
47860;SDS011;33620;52.340;5.984;2023-09-07T07:43:32;21.17;;;12.52;;
47860;SDS011;33620;52.340;5.984;2023-09-07T07:45:58;18.88;;;11.73;;
47860;SDS011;33620;52.340;5.984;2023-09-07T07:48:24;18.85;;;12.73;;
47860;SDS011;33620;52.340;5.984;2023-09-07T07:50:50;21.77;;;12.65;;
47860;SDS011;33620;52.340;5.984;2023-09-07T07:53:15;21.38;;;12.70;;
47860;SDS011;33620;52.340;5.984;2023-09-07T07:55:41;21.23;;;11.70;;
47860;SDS011;33620;52.340;5.984;2023-09-07T07:58:07;20.27;;;12.70;;
47860;SDS011;33620;52.340;5.984;2023-09-07T08:00:33;18.08;;;10.70;;
47860;SDS011;33620;52.340;5.984;2023-09-07T08:03:00;17.95;;;11.85;;
47860;SDS011;33620;52.340;5.984;2023-09-07T08:05:28;19.40;;;11.60;;
47860;SDS011;33620;52.340;5.984;2023-09-07T08:07:53;20.15;;;11.93;;
47860;SDS011;33620;52.340;5.984;2023-09-07T08:10:19;22.58;;;11.65;;
47860;SDS011;33620;52.340;5.984;2023-09-07T08:12:44;20.23;;;11.75;;
47860;SDS011;33620;52.340;5.984;2023-09-07T08:15:10;20.70;;;11.55;;
47860;SDS011;33620;52.340;5.984;2023-09-07T08:17:35;20.10;;;10.98;;
47860;SDS011;33620;52.340;5.984;2023-09-07T08:20:01;19.15;;;11.50;;
47860;SDS011;33620;52.340;5.984;2023-09-07T08:22:28;20.75;;;11.85;;
47860;SDS011;33620;52.340;5.984;2023-09-07T08:24:53;19.13;;;11.20;;
47860;SDS011;33620;52.340;5.984;2023-09-07T08:27:20;19.48;;;11.52;;
47860;SDS011;33620;52.340;5.984;2023-09-07T08:29:46;21.92;;;11.75;;
47860;SDS011;33620;52.340;5.984;2023-09-07T08:32:16;20.80;;;10.90;;
47860;SDS011;33620;52.340;5.984;2023-09-07T08:34:42;21.23;;;11.30;;
47860;SDS011;33620;52.340;5.984;2023-09-07T08:37:08;20.90;;;11.32;;
47860;SDS011;33620;52.340;5.984;2023-09-07T08:39:36;18.63;;;10.85;;
47860;SDS011;33620;52.340;5.984;2023-09-07T08:42:04;18.42;;;11.15;;
47860;SDS011;33620;52.340;5.984;2023-09-07T08:44:30;19.40;;;11.45;;
47860;SDS011;33620;52.340;5.984;2023-09-07T08:46:59;18.88;;;10.82;;
47860;SDS011;33620;52.340;5.984;2023-09-07T08:49:26;19.52;;;11.05;;
47860;SDS011;33620;52.340;5.984;2023-09-07T08:51:52;18.52;;;10.32;;
47860;SDS011;33620;52.340;5.984;2023-09-07T08:54:19;21.33;;;10.75;;
47860;SDS011;33620;52.340;5.984;2023-09-07T08:56:45;17.40;;;11.10;;
47860;SDS011;33620;52.340;5.984;2023-09-07T08:59:11;19.40;;;10.63;;
47860;SDS011;33620;52.340;5.984;2023-09-07T09:01:37;17.92;;;10.32;;
47860;SDS011;33620;52.340;5.984;2023-09-07T09:04:03;18.83;;;11.25;;
47860;SDS011;33620;52.340;5.984;2023-09-07T09:06:28;17.33;;;10.18;;
47860;SDS011;33620;52.340;5.984;2023-09-07T09:08:54;19.00;;;10.23;;
47860;SDS011;33620;52.340;5.984;2023-09-07T09:11:21;19.58;;;9.82;;
47860;SDS011;33620;52.340;5.984;2023-09-07T09:13:48;14.05;;;9.07;;
47860;SDS011;33620;52.340;5.984;2023-09-07T09:16:15;19.00;;;8.80;;
47860;SDS011;33620;52.340;5.984;2023-09-07T09:18:56;19.45;;;11.02;;
47860;SDS011;33620;52.340;5.984;2023-09-07T09:21:23;19.60;;;9.43;;
47860;SDS011;33620;52.340;5.984;2023-09-07T09:23:53;15.70;;;9.55;;
47860;SDS011;33620;52.340;5.984;2023-09-07T09:26:20;15.07;;;9.05;;
47860;SDS011;33620;52.340;5.984;2023-09-07T09:28:46;17.35;;;10.07;;
47860;SDS011;33620;52.340;5.984;2023-09-07T09:31:12;14.80;;;8.77;;
47860;SDS011;33620;52.340;5.984;2023-09-07T09:33:39;17.45;;;9.07;;
47860;SDS011;33620;52.340;5.984;2023-09-07T09:36:08;14.45;;;8.50;;
47860;SDS011;33620;52.340;5.984;2023-09-07T09:38:34;18.30;;;9.00;;
47860;SDS011;33620;52.340;5.984;2023-09-07T09:41:00;16.13;;;7.85;;
47860;SDS011;33620;52.340;5.984;2023-09-07T09:43:28;13.68;;;7.82;;
47860;SDS011;33620;52.340;5.984;2023-09-07T09:45:53;15.85;;;8.60;;
47860;SDS011;33620;52.340;5.984;2023-09-07T09:48:20;17.00;;;8.30;;
47860;SDS011;33620;52.340;5.984;2023-09-07T09:50:48;17.35;;;8.57;;
47860;SDS011;33620;52.340;5.984;2023-09-07T09:53:15;13.63;;;7.72;;
47860;SDS011;33620;52.340;5.984;2023-09-07T09:55:47;16.13;;;8.00;;
47860;SDS011;33620;52.340;5.984;2023-09-07T09:58:13;15.05;;;8.20;;
47860;SDS011;33620;52.340;5.984;2023-09-07T10:00:40;14.18;;;8.13;;
47860;SDS011;33620;52.340;5.984;2023-09-07T10:03:08;14.30;;;7.40;;
47860;SDS011;33620;52.340;5.984;2023-09-07T10:05:37;12.05;;;6.90;;
47860;SDS011;33620;52.340;5.984;2023-09-07T10:08:07;13.30;;;7.10;;
47860;SDS011;33620;52.340;5.984;2023-09-07T10:10:37;13.85;;;6.55;;
47860;SDS011;33620;52.340;5.984;2023-09-07T10:13:03;13.45;;;6.70;;
47860;SDS011;33620;52.340;5.984;2023-09-07T10:15:30;11.68;;;6.20;;
47860;SDS011;33620;52.340;5.984;2023-09-07T10:23:43;13.57;;;7.25;;
47860;SDS011;33620;52.340;5.984;2023-09-07T10:26:17;11.85;;;5.93;;
47860;SDS011;33620;52.340;5.984;2023-09-07T10:28:45;13.82;;;6.50;;
47860;SDS011;33620;52.340;5.984;2023-09-07T10:31:14;8.07;;;5.28;;
47860;SDS011;33620;52.340;5.984;2023-09-07T10:33:42;12.23;;;6.30;;
47860;SDS011;33620;52.340;5.984;2023-09-07T10:36:07;13.07;;;6.15;;
47860;SDS011;33620;52.340;5.984;2023-09-07T10:38:33;11.30;;;6.32;;
47860;SDS011;33620;52.340;5.984;2023-09-07T10:41:00;10.88;;;5.95;;
47860;SDS011;33620;52.340;5.984;2023-09-07T10:43:30;10.43;;;5.95;;
47860;SDS011;33620;52.340;5.984;2023-09-07T10:45:56;10.98;;;6.10;;
47860;SDS011;33620;52.340;5.984;2023-09-07T10:48:25;11.32;;;5.45;;
47860;SDS011;33620;52.340;5.984;2023-09-07T10:50:55;9.68;;;5.43;;
47860;SDS011;33620;52.340;5.984;2023-09-07T10:53:27;8.90;;;5.43;;
47860;SDS011;33620;52.340;5.984;2023-09-07T10:55:57;12.48;;;5.70;;
47860;SDS011;33620;52.340;5.984;2023-09-07T10:58:27;10.70;;;5.45;;
47860;SDS011;33620;52.340;5.984;2023-09-07T11:00:55;8.40;;;5.43;;
47860;SDS011;33620;52.340;5.984;2023-09-07T11:03:21;11.82;;;5.68;;
47860;SDS011;33620;52.340;5.984;2023-09-07T11:05:47;8.75;;;5.38;;
47860;SDS011;33620;52.340;5.984;2023-09-07T11:08:16;10.07;;;5.10;;
47860;SDS011;33620;52.340;5.984;2023-09-07T11:10:41;8.40;;;5.10;;
47860;SDS011;33620;52.340;5.984;2023-09-07T11:13:07;11.93;;;5.60;;
47860;SDS011;33620;52.340;5.984;2023-09-07T11:15:34;9.88;;;5.40;;
47860;SDS011;33620;52.340;5.984;2023-09-07T11:18:03;9.20;;;5.07;;
47860;SDS011;33620;52.340;5.984;2023-09-07T11:20:32;10.13;;;5.57;;
47860;SDS011;33620;52.340;5.984;2023-09-07T11:22:59;10.55;;;5.28;;
47860;SDS011;33620;52.340;5.984;2023-09-07T11:25:25;7.93;;;4.93;;
47860;SDS011;33620;52.340;5.984;2023-09-07T11:27:51;11.75;;;5.20;;
47860;SDS011;33620;52.340;5.984;2023-09-07T11:30:20;11.40;;;5.07;;
47860;SDS011;33620;52.340;5.984;2023-09-07T11:32:46;10.30;;;5.00;;
47860;SDS011;33620;52.340;5.984;2023-09-07T11:35:11;12.02;;;5.38;;
47860;SDS011;33620;52.340;5.984;2023-09-07T11:37:37;10.73;;;4.90;;
47860;SDS011;33620;52.340;5.984;2023-09-07T11:40:02;12.73;;;5.72;;
47860;SDS011;33620;52.340;5.984;2023-09-07T11:42:36;8.25;;;5.22;;
47860;SDS011;33620;52.340;5.984;2023-09-07T11:45:01;9.50;;;4.82;;
47860;SDS011;33620;52.340;5.984;2023-09-07T11:47:27;8.95;;;4.65;;
47860;SDS011;33620;52.340;5.984;2023-09-07T11:49:52;9.90;;;4.60;;
47860;SDS011;33620;52.340;5.984;2023-09-07T11:52:18;9.45;;;5.07;;
47860;SDS011;33620;52.340;5.984;2023-09-07T11:54:43;8.73;;;4.85;;
47860;SDS011;33620;52.340;5.984;2023-09-07T11:57:09;7.18;;;5.05;;
47860;SDS011;33620;52.340;5.984;2023-09-07T11:59:34;11.60;;;5.28;;
47860;SDS011;33620;52.340;5.984;2023-09-07T12:02:00;9.40;;;4.50;;
47860;SDS011;33620;52.340;5.984;2023-09-07T12:04:25;8.45;;;5.07;;
47860;SDS011;33620;52.340;5.984;2023-09-07T12:06:51;11.57;;;5.57;;
47860;SDS011;33620;52.340;5.984;2023-09-07T12:09:16;8.30;;;4.82;;
47860;SDS011;33620;52.340;5.984;2023-09-07T12:11:42;10.20;;;4.85;;
47860;SDS011;33620;52.340;5.984;2023-09-07T12:14:08;9.55;;;4.80;;
47860;SDS011;33620;52.340;5.984;2023-09-07T12:16:34;9.15;;;5.05;;
47860;SDS011;33620;52.340;5.984;2023-09-07T12:18:59;7.20;;;4.50;;
47860;SDS011;33620;52.340;5.984;2023-09-07T12:21:25;10.73;;;5.32;;
47860;SDS011;33620;52.340;5.984;2023-09-07T12:23:50;6.88;;;4.63;;
47860;SDS011;33620;52.340;5.984;2023-09-07T12:26:15;9.10;;;4.80;;
47860;SDS011;33620;52.340;5.984;2023-09-07T12:28:45;9.05;;;4.97;;
47860;SDS011;33620;52.340;5.984;2023-09-07T12:31:11;7.68;;;4.93;;
47860;SDS011;33620;52.340;5.984;2023-09-07T12:33:37;11.73;;;5.05;;
47860;SDS011;33620;52.340;5.984;2023-09-07T12:36:03;9.98;;;4.70;;
47860;SDS011;33620;52.340;5.984;2023-09-07T12:38:28;9.15;;;4.72;;
47860;SDS011;33620;52.340;5.984;2023-09-07T12:40:54;10.02;;;5.03;;
47860;SDS011;33620;52.340;5.984;2023-09-07T12:43:20;8.65;;;4.68;;
47860;SDS011;33620;52.340;5.984;2023-09-07T12:45:46;11.13;;;5.07;;
47860;SDS011;33620;52.340;5.984;2023-09-07T12:48:11;11.70;;;4.78;;
47860;SDS011;33620;52.340;5.984;2023-09-07T12:50:37;11.63;;;5.03;;
47860;SDS011;33620;52.340;5.984;2023-09-07T12:53:02;9.90;;;5.03;;
47860;SDS011;33620;52.340;5.984;2023-09-07T12:55:28;9.73;;;4.90;;
47860;SDS011;33620;52.340;5.984;2023-09-07T12:57:54;10.10;;;4.85;;
47860;SDS011;33620;52.340;5.984;2023-09-07T13:00:20;7.25;;;4.35;;
47860;SDS011;33620;52.340;5.984;2023-09-07T13:02:45;9.68;;;4.53;;
47860;SDS011;33620;52.340;5.984;2023-09-07T13:05:11;9.77;;;4.38;;
47860;SDS011;33620;52.340;5.984;2023-09-07T13:07:36;6.47;;;4.05;;
47860;SDS011;33620;52.340;5.984;2023-09-07T13:10:02;7.25;;;4.20;;
47860;SDS011;33620;52.340;5.984;2023-09-07T13:12:29;8.65;;;4.07;;
47860;SDS011;33620;52.340;5.984;2023-09-07T13:14:55;7.97;;;4.30;;
47860;SDS011;33620;52.340;5.984;2023-09-07T13:17:21;6.63;;;3.90;;
47860;SDS011;33620;52.340;5.984;2023-09-07T13:19:46;9.98;;;4.43;;
47860;SDS011;33620;52.340;5.984;2023-09-07T13:22:13;5.97;;;4.18;;
47860;SDS011;33620;52.340;5.984;2023-09-07T13:24:39;7.45;;;4.38;;
47860;SDS011;33620;52.340;5.984;2023-09-07T13:27:04;8.68;;;4.30;;
47860;SDS011;33620;52.340;5.984;2023-09-07T13:29:33;7.43;;;4.30;;
47860;SDS011;33620;52.340;5.984;2023-09-07T13:31:58;6.78;;;4.00;;
47860;SDS011;33620;52.340;5.984;2023-09-07T13:34:24;8.48;;;4.40;;
47860;SDS011;33620;52.340;5.984;2023-09-07T13:36:50;10.82;;;4.85;;
47860;SDS011;33620;52.340;5.984;2023-09-07T13:39:15;8.63;;;4.25;;
47860;SDS011;33620;52.340;5.984;2023-09-07T13:41:40;9.40;;;4.22;;
47860;SDS011;33620;52.340;5.984;2023-09-07T13:44:06;8.23;;;4.13;;
47860;SDS011;33620;52.340;5.984;2023-09-07T13:46:31;7.45;;;4.15;;
47860;SDS011;33620;52.340;5.984;2023-09-07T13:48:57;9.38;;;4.07;;
47860;SDS011;33620;52.340;5.984;2023-09-07T13:51:23;8.80;;;4.35;;
47860;SDS011;33620;52.340;5.984;2023-09-07T13:53:49;9.13;;;4.53;;
47860;SDS011;33620;52.340;5.984;2023-09-07T13:56:15;7.03;;;4.43;;
47860;SDS011;33620;52.340;5.984;2023-09-07T13:58:41;9.70;;;4.78;;
47860;SDS011;33620;52.340;5.984;2023-09-07T14:01:06;8.48;;;5.07;;
47860;SDS011;33620;52.340;5.984;2023-09-07T14:03:32;7.28;;;4.20;;
47860;SDS011;33620;52.340;5.984;2023-09-07T14:05:57;10.63;;;4.55;;
47860;SDS011;33620;52.340;5.984;2023-09-07T14:08:22;8.55;;;4.32;;
47860;SDS011;33620;52.340;5.984;2023-09-07T14:10:49;8.10;;;4.53;;
47860;SDS011;33620;52.340;5.984;2023-09-07T14:13:15;9.07;;;4.78;;
47860;SDS011;33620;52.340;5.984;2023-09-07T14:15:40;9.05;;;4.47;;
47860;SDS011;33620;52.340;5.984;2023-09-07T14:18:06;6.13;;;4.25;;
47860;SDS011;33620;52.340;5.984;2023-09-07T14:20:33;12.20;;;4.72;;
47860;SDS011;33620;52.340;5.984;2023-09-07T14:22:58;7.95;;;4.45;;
47860;SDS011;33620;52.340;5.984;2023-09-07T14:25:25;8.98;;;4.10;;
47860;SDS011;33620;52.340;5.984;2023-09-07T14:27:51;10.10;;;4.47;;
47860;SDS011;33620;52.340;5.984;2023-09-07T14:30:16;11.05;;;4.65;;
47860;SDS011;33620;52.340;5.984;2023-09-07T14:32:43;10.77;;;4.53;;
47860;SDS011;33620;52.340;5.984;2023-09-07T14:35:08;7.82;;;4.90;;
47860;SDS011;33620;52.340;5.984;2023-09-07T14:37:34;9.65;;;5.22;;
47860;SDS011;33620;52.340;5.984;2023-09-07T14:40:00;10.38;;;4.90;;